sensor_id;sensor_type;location;lat;lon;timestamp;temperature;humidity
3564;DHT22;1796;52.388;13.096;2023-03-11T00:01:16;0.40;99.90
3564;DHT22;1796;52.388;13.096;2023-03-11T00:03:43;0.30;99.90
3564;DHT22;1796;52.388;13.096;2023-03-11T00:06:10;1.20;99.90
3564;DHT22;1796;52.388;13.096;2023-03-11T00:08:37;0.30;99.90
3564;DHT22;1796;52.388;13.096;2023-03-11T00:11:05;0.30;99.90
3564;DHT22;1796;52.388;13.096;2023-03-11T00:13:32;0.30;99.90
3564;DHT22;1796;52.388;13.096;2023-03-11T00:16:01;0.30;99.90
3564;DHT22;1796;52.388;13.096;2023-03-11T00:18:29;0.30;99.90
3564;DHT22;1796;52.388;13.096;2023-03-11T00:20:57;0.40;99.90
3564;DHT22;1796;52.388;13.096;2023-03-11T00:23:25;0.30;99.90
3564;DHT22;1796;52.388;13.096;2023-03-11T00:25:52;0.30;99.90
3564;DHT22;1796;52.388;13.096;2023-03-11T00:28:21;0.20;99.90
3564;DHT22;1796;52.388;13.096;2023-03-11T00:30:52;0.20;99.90
3564;DHT22;1796;52.388;13.096;2023-03-11T00:33:19;0.70;99.90
3564;DHT22;1796;52.388;13.096;2023-03-11T00:35:46;0.20;99.90
3564;DHT22;1796;52.388;13.096;2023-03-11T00:38:15;0.50;99.90
3564;DHT22;1796;52.388;13.096;2023-03-11T00:40:43;0.20;99.90
3564;DHT22;1796;52.388;13.096;2023-03-11T00:43:10;0.90;99.90
3564;DHT22;1796;52.388;13.096;2023-03-11T00:45:42;0.20;99.90
3564;DHT22;1796;52.388;13.096;2023-03-11T00:48:10;0.20;99.90
3564;DHT22;1796;52.388;13.096;2023-03-11T00:50:37;0.20;99.90
3564;DHT22;1796;52.388;13.096;2023-03-11T00:53:05;0.40;99.90
3564;DHT22;1796;52.388;13.096;2023-03-11T00:55:33;0.20;99.90
3564;DHT22;1796;52.388;13.096;2023-03-11T00:58:02;0.20;99.90
3564;DHT22;1796;52.388;13.096;2023-03-11T01:00:29;0.20;99.90
3564;DHT22;1796;52.388;13.096;2023-03-11T01:02:58;0.20;99.90
3564;DHT22;1796;52.388;13.096;2023-03-11T01:05:28;0.20;99.90
3564;DHT22;1796;52.388;13.096;2023-03-11T01:07:55;0.20;99.90
3564;DHT22;1796;52.388;13.096;2023-03-11T01:10:22;0.20;99.90
3564;DHT22;1796;52.388;13.096;2023-03-11T01:12:49;0.20;99.90
3564;DHT22;1796;52.388;13.096;2023-03-11T01:15:18;0.20;99.90
3564;DHT22;1796;52.388;13.096;2023-03-11T01:17:45;0.10;99.90
3564;DHT22;1796;52.388;13.096;2023-03-11T01:20:14;0.20;99.90
3564;DHT22;1796;52.388;13.096;2023-03-11T01:22:41;0.20;99.90
3564;DHT22;1796;52.388;13.096;2023-03-11T01:25:10;0.20;99.90
3564;DHT22;1796;52.388;13.096;2023-03-11T01:27:38;0.10;99.90
3564;DHT22;1796;52.388;13.096;2023-03-11T01:30:06;0.20;99.90
3564;DHT22;1796;52.388;13.096;2023-03-11T01:32:33;0.20;99.90
3564;DHT22;1796;52.388;13.096;2023-03-11T01:35:00;0.20;99.90
3564;DHT22;1796;52.388;13.096;2023-03-11T01:37:28;0.20;99.90
3564;DHT22;1796;52.388;13.096;2023-03-11T01:39:55;0.20;99.90
3564;DHT22;1796;52.388;13.096;2023-03-11T01:42:22;0.20;99.90
3564;DHT22;1796;52.388;13.096;2023-03-11T01:44:49;0.20;99.90
3564;DHT22;1796;52.388;13.096;2023-03-11T01:47:37;0.20;99.90
3564;DHT22;1796;52.388;13.096;2023-03-11T01:50:08;0.20;99.90
3564;DHT22;1796;52.388;13.096;2023-03-11T01:52:37;0.20;99.90
3564;DHT22;1796;52.388;13.096;2023-03-11T01:55:05;0.20;99.90
3564;DHT22;1796;52.388;13.096;2023-03-11T01:57:33;0.10;99.90
3564;DHT22;1796;52.388;13.096;2023-03-11T02:00:03;0.20;99.90
3564;DHT22;1796;52.388;13.096;2023-03-11T02:02:35;0.20;99.90
3564;DHT22;1796;52.388;13.096;2023-03-11T02:05:03;0.20;99.90
3564;DHT22;1796;52.388;13.096;2023-03-11T02:07:30;0.20;99.90
3564;DHT22;1796;52.388;13.096;2023-03-11T02:09:58;0.20;99.90
3564;DHT22;1796;52.388;13.096;2023-03-11T02:12:28;0.20;99.90
3564;DHT22;1796;52.388;13.096;2023-03-11T02:14:56;0.20;99.90
3564;DHT22;1796;52.388;13.096;2023-03-11T02:17:24;0.20;99.90
3564;DHT22;1796;52.388;13.096;2023-03-11T02:20:02;0.20;99.90
3564;DHT22;1796;52.388;13.096;2023-03-11T02:22:32;0.00;99.90
3564;DHT22;1796;52.388;13.096;2023-03-11T02:25:04;0.20;99.90
3564;DHT22;1796;52.388;13.096;2023-03-11T02:27:38;0.20;99.90
3564;DHT22;1796;52.388;13.096;2023-03-11T02:30:08;0.20;99.90
3564;DHT22;1796;52.388;13.096;2023-03-11T02:32:36;0.20;99.90
3564;DHT22;1796;52.388;13.096;2023-03-11T02:35:04;0.20;99.90
3564;DHT22;1796;52.388;13.096;2023-03-11T02:37:31;0.20;99.90
3564;DHT22;1796;52.388;13.096;2023-03-11T02:40:34;0.20;99.90
3564;DHT22;1796;52.388;13.096;2023-03-11T02:43:05;0.20;99.90
3564;DHT22;1796;52.388;13.096;2023-03-11T02:45:33;0.30;99.90
3564;DHT22;1796;52.388;13.096;2023-03-11T02:48:02;0.20;99.90
3564;DHT22;1796;52.388;13.096;2023-03-11T02:50:29;0.30;99.90
3564;DHT22;1796;52.388;13.096;2023-03-11T02:52:59;0.30;99.90
3564;DHT22;1796;52.388;13.096;2023-03-11T02:55:25;0.30;99.90
3564;DHT22;1796;52.388;13.096;2023-03-11T02:57:52;0.20;99.90
3564;DHT22;1796;52.388;13.096;2023-03-11T03:00:21;0.20;99.90
3564;DHT22;1796;52.388;13.096;2023-03-11T03:02:48;0.20;99.90
3564;DHT22;1796;52.388;13.096;2023-03-11T03:05:17;0.60;99.90
3564;DHT22;1796;52.388;13.096;2023-03-11T03:07:45;0.30;99.90
3564;DHT22;1796;52.388;13.096;2023-03-11T03:10:13;0.20;99.90
3564;DHT22;1796;52.388;13.096;2023-03-11T03:12:40;0.20;99.90
3564;DHT22;1796;52.388;13.096;2023-03-11T03:15:08;0.20;99.90
3564;DHT22;1796;52.388;13.096;2023-03-11T03:17:37;0.20;99.90
3564;DHT22;1796;52.388;13.096;2023-03-11T03:20:05;0.20;99.90
3564;DHT22;1796;52.388;13.096;2023-03-11T03:22:36;0.20;99.90
3564;DHT22;1796;52.388;13.096;2023-03-11T03:25:03;0.20;99.90
3564;DHT22;1796;52.388;13.096;2023-03-11T03:27:31;0.20;99.90
3564;DHT22;1796;52.388;13.096;2023-03-11T03:29:58;0.20;99.90
3564;DHT22;1796;52.388;13.096;2023-03-11T03:32:25;0.20;99.90
3564;DHT22;1796;52.388;13.096;2023-03-11T03:34:53;0.20;99.90
3564;DHT22;1796;52.388;13.096;2023-03-11T03:37:24;0.20;99.90
3564;DHT22;1796;52.388;13.096;2023-03-11T03:39:51;0.20;99.90
3564;DHT22;1796;52.388;13.096;2023-03-11T03:42:17;0.20;99.90
3564;DHT22;1796;52.388;13.096;2023-03-11T03:44:44;0.20;99.90
3564;DHT22;1796;52.388;13.096;2023-03-11T03:47:11;0.20;99.90
3564;DHT22;1796;52.388;13.096;2023-03-11T03:49:38;0.20;99.90
3564;DHT22;1796;52.388;13.096;2023-03-11T03:52:06;0.20;99.90
3564;DHT22;1796;52.388;13.096;2023-03-11T03:54:34;0.20;99.90
3564;DHT22;1796;52.388;13.096;2023-03-11T03:57:01;0.20;99.90
3564;DHT22;1796;52.388;13.096;2023-03-11T03:59:29;-0.20;99.90
3564;DHT22;1796;52.388;13.096;2023-03-11T04:01:56;0.20;99.90
3564;DHT22;1796;52.388;13.096;2023-03-11T04:04:22;0.20;99.90
3564;DHT22;1796;52.388;13.096;2023-03-11T04:06:49;0.20;99.90
3564;DHT22;1796;52.388;13.096;2023-03-11T04:09:18;0.20;99.90
3564;DHT22;1796;52.388;13.096;2023-03-11T04:11:45;0.20;99.90
3564;DHT22;1796;52.388;13.096;2023-03-11T04:14:12;1.30;99.90
3564;DHT22;1796;52.388;13.096;2023-03-11T04:16:39;0.20;99.90
3564;DHT22;1796;52.388;13.096;2023-03-11T04:19:06;0.30;99.90
3564;DHT22;1796;52.388;13.096;2023-03-11T04:21:32;0.20;99.90
3564;DHT22;1796;52.388;13.096;2023-03-11T04:23:59;0.20;99.90
3564;DHT22;1796;52.388;13.096;2023-03-11T04:26:28;0.20;99.90
3564;DHT22;1796;52.388;13.096;2023-03-11T04:28:55;0.20;99.90
3564;DHT22;1796;52.388;13.096;2023-03-11T04:31:22;0.20;99.90
3564;DHT22;1796;52.388;13.096;2023-03-11T04:33:49;0.20;99.90
3564;DHT22;1796;52.388;13.096;2023-03-11T04:36:16;0.20;99.90
3564;DHT22;1796;52.388;13.096;2023-03-11T04:38:42;0.20;99.90
3564;DHT22;1796;52.388;13.096;2023-03-11T04:41:10;0.80;99.90
3564;DHT22;1796;52.388;13.096;2023-03-11T04:43:38;0.20;99.90
3564;DHT22;1796;52.388;13.096;2023-03-11T04:46:05;0.20;99.90
3564;DHT22;1796;52.388;13.096;2023-03-11T04:48:32;0.20;99.90
3564;DHT22;1796;52.388;13.096;2023-03-11T04:50:59;0.20;99.90
3564;DHT22;1796;52.388;13.096;2023-03-11T04:53:25;0.20;99.90
3564;DHT22;1796;52.388;13.096;2023-03-11T04:55:52;0.20;99.90
3564;DHT22;1796;52.388;13.096;2023-03-11T04:58:19;0.20;99.90
3564;DHT22;1796;52.388;13.096;2023-03-11T05:00:48;0.60;99.90
3564;DHT22;1796;52.388;13.096;2023-03-11T05:03:15;0.20;99.90
3564;DHT22;1796;52.388;13.096;2023-03-11T05:05:41;0.20;99.90
3564;DHT22;1796;52.388;13.096;2023-03-11T05:08:08;0.20;99.90
3564;DHT22;1796;52.388;13.096;2023-03-11T05:10:35;0.20;99.90
3564;DHT22;1796;52.388;13.096;2023-03-11T05:13:02;0.30;99.90
3564;DHT22;1796;52.388;13.096;2023-03-11T05:15:29;0.20;99.90
3564;DHT22;1796;52.388;13.096;2023-03-11T05:17:57;0.20;99.90
3564;DHT22;1796;52.388;13.096;2023-03-11T05:20:24;0.20;99.90
3564;DHT22;1796;52.388;13.096;2023-03-11T05:22:51;0.20;99.90
3564;DHT22;1796;52.388;13.096;2023-03-11T05:25:21;0.20;99.90
3564;DHT22;1796;52.388;13.096;2023-03-11T05:27:50;0.20;99.90
3564;DHT22;1796;52.388;13.096;2023-03-11T05:30:23;0.20;99.90
3564;DHT22;1796;52.388;13.096;2023-03-11T05:33:04;0.30;99.90
3564;DHT22;1796;52.388;13.096;2023-03-11T05:35:42;0.20;99.90
3564;DHT22;1796;52.388;13.096;2023-03-11T05:38:12;0.20;99.90
3564;DHT22;1796;52.388;13.096;2023-03-11T05:40:41;0.40;99.90
3564;DHT22;1796;52.388;13.096;2023-03-11T05:43:08;0.20;99.90
3564;DHT22;1796;52.388;13.096;2023-03-11T05:45:35;0.20;99.90
3564;DHT22;1796;52.388;13.096;2023-03-11T05:48:09;0.40;99.90
3564;DHT22;1796;52.388;13.096;2023-03-11T05:50:43;0.10;99.90
3564;DHT22;1796;52.388;13.096;2023-03-11T05:53:18;0.40;99.90
3564;DHT22;1796;52.388;13.096;2023-03-11T05:55:57;0.10;99.90
3564;DHT22;1796;52.388;13.096;2023-03-11T05:58:26;0.30;99.90
3564;DHT22;1796;52.388;13.096;2023-03-11T06:00:55;0.20;99.90
3564;DHT22;1796;52.388;13.096;2023-03-11T06:03:30;0.20;99.90
3564;DHT22;1796;52.388;13.096;2023-03-11T06:06:10;0.10;99.90
3564;DHT22;1796;52.388;13.096;2023-03-11T06:08:45;0.20;99.90
3564;DHT22;1796;52.388;13.096;2023-03-11T06:11:26;0.20;99.90
3564;DHT22;1796;52.388;13.096;2023-03-11T06:13:54;0.40;99.90
3564;DHT22;1796;52.388;13.096;2023-03-11T06:16:35;0.20;99.90
3564;DHT22;1796;52.388;13.096;2023-03-11T06:19:03;0.30;99.90
3564;DHT22;1796;52.388;13.096;2023-03-11T06:21:30;1.00;99.90
3564;DHT22;1796;52.388;13.096;2023-03-11T06:24:01;0.20;99.90
3564;DHT22;1796;52.388;13.096;2023-03-11T06:26:28;0.40;99.90
3564;DHT22;1796;52.388;13.096;2023-03-11T06:28:58;0.30;99.90
3564;DHT22;1796;52.388;13.096;2023-03-11T06:31:28;0.20;99.90
3564;DHT22;1796;52.388;13.096;2023-03-11T06:33:57;0.70;99.90
3564;DHT22;1796;52.388;13.096;2023-03-11T06:36:35;0.20;99.90
3564;DHT22;1796;52.388;13.096;2023-03-11T06:39:05;0.20;99.90
3564;DHT22;1796;52.388;13.096;2023-03-11T06:41:32;0.20;99.90
3564;DHT22;1796;52.388;13.096;2023-03-11T06:43:59;0.20;99.90
3564;DHT22;1796;52.388;13.096;2023-03-11T06:46:27;0.20;99.90
3564;DHT22;1796;52.388;13.096;2023-03-11T06:48:54;0.20;99.90
3564;DHT22;1796;52.388;13.096;2023-03-11T06:51:21;0.20;99.90
3564;DHT22;1796;52.388;13.096;2023-03-11T06:53:50;0.20;99.90
3564;DHT22;1796;52.388;13.096;2023-03-11T06:56:18;0.70;99.90
3564;DHT22;1796;52.388;13.096;2023-03-11T06:58:46;0.20;99.90
3564;DHT22;1796;52.388;13.096;2023-03-11T07:01:14;0.20;99.90
3564;DHT22;1796;52.388;13.096;2023-03-11T07:03:41;0.20;99.90
3564;DHT22;1796;52.388;13.096;2023-03-11T07:06:15;0.20;99.90
3564;DHT22;1796;52.388;13.096;2023-03-11T07:08:43;0.20;99.90
3564;DHT22;1796;52.388;13.096;2023-03-11T07:11:14;0.20;99.90
3564;DHT22;1796;52.388;13.096;2023-03-11T07:13:41;0.20;99.90
3564;DHT22;1796;52.388;13.096;2023-03-11T07:16:11;0.30;99.90
3564;DHT22;1796;52.388;13.096;2023-03-11T07:18:40;0.20;99.90
3564;DHT22;1796;52.388;13.096;2023-03-11T07:21:08;0.20;99.90
3564;DHT22;1796;52.388;13.096;2023-03-11T07:23:35;0.20;99.90
3564;DHT22;1796;52.388;13.096;2023-03-11T07:26:02;0.20;99.90
3564;DHT22;1796;52.388;13.096;2023-03-11T07:28:30;0.30;99.90
3564;DHT22;1796;52.388;13.096;2023-03-11T07:30:57;0.40;99.90
3564;DHT22;1796;52.388;13.096;2023-03-11T07:33:24;0.40;99.90
3564;DHT22;1796;52.388;13.096;2023-03-11T07:35:51;0.40;99.90
3564;DHT22;1796;52.388;13.096;2023-03-11T07:38:18;0.40;99.90
3564;DHT22;1796;52.388;13.096;2023-03-11T07:40:46;0.40;99.90
3564;DHT22;1796;52.388;13.096;2023-03-11T07:43:12;0.90;99.90
3564;DHT22;1796;52.388;13.096;2023-03-11T07:45:41;0.40;99.90
3564;DHT22;1796;52.388;13.096;2023-03-11T07:48:07;0.40;99.90
3564;DHT22;1796;52.388;13.096;2023-03-11T07:50:34;0.30;99.90
3564;DHT22;1796;52.388;13.096;2023-03-11T07:53:01;0.40;99.90
3564;DHT22;1796;52.388;13.096;2023-03-11T07:55:28;0.40;99.90
3564;DHT22;1796;52.388;13.096;2023-03-11T07:57:57;0.40;99.90
3564;DHT22;1796;52.388;13.096;2023-03-11T08:00:24;0.30;99.90
3564;DHT22;1796;52.388;13.096;2023-03-11T08:02:53;0.40;99.90
3564;DHT22;1796;52.388;13.096;2023-03-11T08:05:20;0.40;99.90
3564;DHT22;1796;52.388;13.096;2023-03-11T08:07:49;0.50;99.90
3564;DHT22;1796;52.388;13.096;2023-03-11T08:10:16;0.50;99.90
3564;DHT22;1796;52.388;13.096;2023-03-11T08:12:42;0.40;99.90
3564;DHT22;1796;52.388;13.096;2023-03-11T08:15:10;0.40;99.90
3564;DHT22;1796;52.388;13.096;2023-03-11T08:17:37;0.40;99.90
3564;DHT22;1796;52.388;13.096;2023-03-11T08:20:09;0.50;99.90
3564;DHT22;1796;52.388;13.096;2023-03-11T08:22:36;0.40;99.90
3564;DHT22;1796;52.388;13.096;2023-03-11T08:25:04;0.40;99.90
3564;DHT22;1796;52.388;13.096;2023-03-11T08:27:31;0.40;99.90
3564;DHT22;1796;52.388;13.096;2023-03-11T08:30:02;0.40;99.90
3564;DHT22;1796;52.388;13.096;2023-03-11T08:32:29;0.40;99.90
3564;DHT22;1796;52.388;13.096;2023-03-11T08:34:56;0.40;99.90
3564;DHT22;1796;52.388;13.096;2023-03-11T08:37:25;0.40;99.90
3564;DHT22;1796;52.388;13.096;2023-03-11T08:39:52;0.50;99.90
3564;DHT22;1796;52.388;13.096;2023-03-11T08:42:19;0.50;99.90
3564;DHT22;1796;52.388;13.096;2023-03-11T08:44:46;0.50;99.90
3564;DHT22;1796;52.388;13.096;2023-03-11T08:47:13;0.50;99.90
3564;DHT22;1796;52.388;13.096;2023-03-11T08:49:40;0.70;99.90
3564;DHT22;1796;52.388;13.096;2023-03-11T08:52:06;0.70;99.90
3564;DHT22;1796;52.388;13.096;2023-03-11T08:54:35;0.70;99.90
3564;DHT22;1796;52.388;13.096;2023-03-11T08:57:02;0.70;99.90
3564;DHT22;1796;52.388;13.096;2023-03-11T08:59:29;0.70;99.90
3564;DHT22;1796;52.388;13.096;2023-03-11T09:01:57;0.80;99.90
3564;DHT22;1796;52.388;13.096;2023-03-11T09:04:24;0.70;99.90
3564;DHT22;1796;52.388;13.096;2023-03-11T09:06:51;0.70;99.90
3564;DHT22;1796;52.388;13.096;2023-03-11T09:09:18;0.80;99.90
3564;DHT22;1796;52.388;13.096;2023-03-11T09:11:47;0.70;99.90
3564;DHT22;1796;52.388;13.096;2023-03-11T09:14:14;0.60;99.90
3564;DHT22;1796;52.388;13.096;2023-03-11T09:16:41;0.70;99.90
3564;DHT22;1796;52.388;13.096;2023-03-11T09:19:08;0.80;99.90
3564;DHT22;1796;52.388;13.096;2023-03-11T09:21:35;0.80;99.90
3564;DHT22;1796;52.388;13.096;2023-03-11T09:24:03;0.70;99.90
3564;DHT22;1796;52.388;13.096;2023-03-11T09:26:31;0.70;99.90
3564;DHT22;1796;52.388;13.096;2023-03-11T09:28:59;0.70;99.90
3564;DHT22;1796;52.388;13.096;2023-03-11T09:31:26;0.70;99.90
3564;DHT22;1796;52.388;13.096;2023-03-11T09:33:53;0.90;99.90
3564;DHT22;1796;52.388;13.096;2023-03-11T09:36:21;0.80;99.90
3564;DHT22;1796;52.388;13.096;2023-03-11T09:38:48;0.80;99.90
3564;DHT22;1796;52.388;13.096;2023-03-11T09:41:24;0.80;99.90
3564;DHT22;1796;52.388;13.096;2023-03-11T09:44:14;0.90;99.90
3564;DHT22;1796;52.388;13.096;2023-03-11T09:49:57;1.10;99.90
3564;DHT22;1796;52.388;13.096;2023-03-11T09:52:32;1.10;99.90
3564;DHT22;1796;52.388;13.096;2023-03-11T09:55:03;1.20;99.90
3564;DHT22;1796;52.388;13.096;2023-03-11T09:57:32;1.10;99.90
3564;DHT22;1796;52.388;13.096;2023-03-11T10:00:04;1.00;99.90
3564;DHT22;1796;52.388;13.096;2023-03-11T10:02:31;1.00;99.90
3564;DHT22;1796;52.388;13.096;2023-03-11T10:05:07;1.10;99.90
3564;DHT22;1796;52.388;13.096;2023-03-11T10:07:38;1.10;99.90
3564;DHT22;1796;52.388;13.096;2023-03-11T10:10:09;1.10;99.90
3564;DHT22;1796;52.388;13.096;2023-03-11T10:12:44;1.20;99.90
3564;DHT22;1796;52.388;13.096;2023-03-11T10:15:23;1.20;99.90
3564;DHT22;1796;52.388;13.096;2023-03-11T10:18:04;1.20;99.90
3564;DHT22;1796;52.388;13.096;2023-03-11T10:20:40;1.10;99.90
3564;DHT22;1796;52.388;13.096;2023-03-11T10:23:21;1.10;99.90
3564;DHT22;1796;52.388;13.096;2023-03-11T10:25:55;1.20;99.90
3564;DHT22;1796;52.388;13.096;2023-03-11T10:28:29;1.10;99.90
3564;DHT22;1796;52.388;13.096;2023-03-11T10:31:01;1.10;99.90
3564;DHT22;1796;52.388;13.096;2023-03-11T10:33:35;1.00;99.90
3564;DHT22;1796;52.388;13.096;2023-03-11T10:36:05;1.00;99.90
3564;DHT22;1796;52.388;13.096;2023-03-11T10:38:38;0.90;99.90
3564;DHT22;1796;52.388;13.096;2023-03-11T10:41:14;0.90;99.90
3564;DHT22;1796;52.388;13.096;2023-03-11T10:43:48;1.00;99.90
3564;DHT22;1796;52.388;13.096;2023-03-11T10:46:25;1.00;99.90
3564;DHT22;1796;52.388;13.096;2023-03-11T10:48:52;1.00;99.90
3564;DHT22;1796;52.388;13.096;2023-03-11T10:51:21;1.00;99.90
3564;DHT22;1796;52.388;13.096;2023-03-11T10:53:50;1.10;99.90
3564;DHT22;1796;52.388;13.096;2023-03-11T10:56:28;1.20;99.90
3564;DHT22;1796;52.388;13.096;2023-03-11T10:58:56;1.30;99.90
3564;DHT22;1796;52.388;13.096;2023-03-11T11:01:25;1.40;99.90
3564;DHT22;1796;52.388;13.096;2023-03-11T11:03:54;1.50;99.90
3564;DHT22;1796;52.388;13.096;2023-03-11T11:06:25;1.60;99.90
3564;DHT22;1796;52.388;13.096;2023-03-11T11:09:12;1.80;99.90
3564;DHT22;1796;52.388;13.096;2023-03-11T11:11:40;1.90;99.90
3564;DHT22;1796;52.388;13.096;2023-03-11T11:14:07;2.10;99.90
3564;DHT22;1796;52.388;13.096;2023-03-11T11:16:36;2.20;99.90
3564;DHT22;1796;52.388;13.096;2023-03-11T11:19:07;2.00;99.90
3564;DHT22;1796;52.388;13.096;2023-03-11T11:21:36;2.20;99.90
3564;DHT22;1796;52.388;13.096;2023-03-11T11:24:16;2.30;99.90
3564;DHT22;1796;52.388;13.096;2023-03-11T11:27:02;2.20;99.90
3564;DHT22;1796;52.388;13.096;2023-03-11T11:29:29;2.20;99.90
3564;DHT22;1796;52.388;13.096;2023-03-11T11:32:15;2.30;99.90
3564;DHT22;1796;52.388;13.096;2023-03-11T11:34:52;2.40;99.90
3564;DHT22;1796;52.388;13.096;2023-03-11T11:37:20;2.50;99.90
3564;DHT22;1796;52.388;13.096;2023-03-11T11:39:49;2.30;99.90
3564;DHT22;1796;52.388;13.096;2023-03-11T11:42:18;2.10;99.90
3564;DHT22;1796;52.388;13.096;2023-03-11T11:44:48;2.10;99.90
3564;DHT22;1796;52.388;13.096;2023-03-11T11:47:20;1.90;99.90
3564;DHT22;1796;52.388;13.096;2023-03-11T11:49:51;1.70;99.90
3564;DHT22;1796;52.388;13.096;2023-03-11T11:52:22;1.70;99.90
3564;DHT22;1796;52.388;13.096;2023-03-11T11:54:52;1.80;99.90
3564;DHT22;1796;52.388;13.096;2023-03-11T11:57:23;1.90;99.90
3564;DHT22;1796;52.388;13.096;2023-03-11T11:59:50;1.90;99.90
3564;DHT22;1796;52.388;13.096;2023-03-11T12:02:37;2.00;99.90
3564;DHT22;1796;52.388;13.096;2023-03-11T12:05:13;2.00;99.90
3564;DHT22;1796;52.388;13.096;2023-03-11T12:08:02;1.90;99.90
3564;DHT22;1796;52.388;13.096;2023-03-11T12:10:32;1.70;99.90
3564;DHT22;1796;52.388;13.096;2023-03-11T12:13:42;1.60;99.90
3564;DHT22;1796;52.388;13.096;2023-03-11T12:16:19;1.60;99.90
3564;DHT22;1796;52.388;13.096;2023-03-11T12:18:53;1.60;99.90
3564;DHT22;1796;52.388;13.096;2023-03-11T12:21:41;1.70;99.90
3564;DHT22;1796;52.388;13.096;2023-03-11T12:24:20;2.10;99.90
3564;DHT22;1796;52.388;13.096;2023-03-11T12:26:51;2.50;99.90
3564;DHT22;1796;52.388;13.096;2023-03-11T12:29:23;2.50;99.90
3564;DHT22;1796;52.388;13.096;2023-03-11T12:31:53;2.60;99.90
3564;DHT22;1796;52.388;13.096;2023-03-11T12:34:22;2.50;99.90
3564;DHT22;1796;52.388;13.096;2023-03-11T12:36:50;2.40;99.90
3564;DHT22;1796;52.388;13.096;2023-03-11T12:39:23;2.20;99.90
3564;DHT22;1796;52.388;13.096;2023-03-11T12:42:14;2.30;99.90
3564;DHT22;1796;52.388;13.096;2023-03-11T12:44:43;2.00;99.90
3564;DHT22;1796;52.388;13.096;2023-03-11T12:47:28;2.10;99.90
3564;DHT22;1796;52.388;13.096;2023-03-11T12:50:36;1.80;99.90
3564;DHT22;1796;52.388;13.096;2023-03-11T12:53:04;1.70;99.90
3564;DHT22;1796;52.388;13.096;2023-03-11T12:55:35;2.10;99.90
3564;DHT22;1796;52.388;13.096;2023-03-11T12:58:28;2.30;99.90
3564;DHT22;1796;52.388;13.096;2023-03-11T13:01:19;2.50;99.90
3564;DHT22;1796;52.388;13.096;2023-03-11T13:03:58;2.30;99.90
3564;DHT22;1796;52.388;13.096;2023-03-11T13:06:44;2.20;99.90
3564;DHT22;1796;52.388;13.096;2023-03-11T13:09:15;2.30;99.90
3564;DHT22;1796;52.388;13.096;2023-03-11T13:11:44;2.30;99.90
3564;DHT22;1796;52.388;13.096;2023-03-11T13:14:29;2.50;99.90
3564;DHT22;1796;52.388;13.096;2023-03-11T13:17:23;2.40;99.90
3564;DHT22;1796;52.388;13.096;2023-03-11T13:19:52;2.50;99.90
3564;DHT22;1796;52.388;13.096;2023-03-11T13:22:41;2.50;99.90
3564;DHT22;1796;52.388;13.096;2023-03-11T13:25:26;2.70;99.90
3564;DHT22;1796;52.388;13.096;2023-03-11T13:27:59;2.70;99.90
3564;DHT22;1796;52.388;13.096;2023-03-11T13:30:33;2.70;99.90
3564;DHT22;1796;52.388;13.096;2023-03-11T13:33:16;2.60;99.90
3564;DHT22;1796;52.388;13.096;2023-03-11T13:35:59;2.60;99.90
3564;DHT22;1796;52.388;13.096;2023-03-11T13:38:47;2.60;99.90
3564;DHT22;1796;52.388;13.096;2023-03-11T13:41:25;2.60;99.90
3564;DHT22;1796;52.388;13.096;2023-03-11T13:43:54;2.70;99.90
3564;DHT22;1796;52.388;13.096;2023-03-11T13:46:29;2.60;99.90
3564;DHT22;1796;52.388;13.096;2023-03-11T13:49:02;2.70;99.90
3564;DHT22;1796;52.388;13.096;2023-03-11T13:51:36;2.90;99.90
3564;DHT22;1796;52.388;13.096;2023-03-11T13:54:23;3.00;99.90
3564;DHT22;1796;52.388;13.096;2023-03-11T13:56:56;2.90;99.90
3564;DHT22;1796;52.388;13.096;2023-03-11T13:59:25;3.00;99.90
3564;DHT22;1796;52.388;13.096;2023-03-11T14:01:55;3.00;99.90
3564;DHT22;1796;52.388;13.096;2023-03-11T14:04:26;2.80;99.90
3564;DHT22;1796;52.388;13.096;2023-03-11T14:06:53;2.80;99.90
3564;DHT22;1796;52.388;13.096;2023-03-11T14:09:23;2.70;99.90
3564;DHT22;1796;52.388;13.096;2023-03-11T14:11:52;2.60;99.90
3564;DHT22;1796;52.388;13.096;2023-03-11T14:14:35;2.90;99.90
3564;DHT22;1796;52.388;13.096;2023-03-11T14:17:05;3.00;99.90
3564;DHT22;1796;52.388;13.096;2023-03-11T14:19:38;3.10;99.90
3564;DHT22;1796;52.388;13.096;2023-03-11T14:22:08;3.10;99.90
3564;DHT22;1796;52.388;13.096;2023-03-11T14:24:37;3.40;99.90
3564;DHT22;1796;52.388;13.096;2023-03-11T14:27:07;3.40;99.90
3564;DHT22;1796;52.388;13.096;2023-03-11T14:29:40;3.40;99.90
3564;DHT22;1796;52.388;13.096;2023-03-11T14:32:25;3.20;99.90
3564;DHT22;1796;52.388;13.096;2023-03-11T14:34:53;3.30;99.90
3564;DHT22;1796;52.388;13.096;2023-03-11T14:37:25;3.40;99.90
3564;DHT22;1796;52.388;13.096;2023-03-11T14:39:57;3.80;99.90
3564;DHT22;1796;52.388;13.096;2023-03-11T14:42:26;3.70;99.90
3564;DHT22;1796;52.388;13.096;2023-03-11T14:44:59;3.30;99.90
3564;DHT22;1796;52.388;13.096;2023-03-11T14:47:32;3.00;99.90
3564;DHT22;1796;52.388;13.096;2023-03-11T14:50:02;3.20;99.90
3564;DHT22;1796;52.388;13.096;2023-03-11T14:52:33;2.90;99.90
3564;DHT22;1796;52.388;13.096;2023-03-11T14:55:06;2.60;99.90
3564;DHT22;1796;52.388;13.096;2023-03-11T14:57:39;2.50;99.90
3564;DHT22;1796;52.388;13.096;2023-03-11T15:00:25;2.40;99.90
3564;DHT22;1796;52.388;13.096;2023-03-11T15:02:59;2.50;99.90
3564;DHT22;1796;52.388;13.096;2023-03-11T15:05:34;2.20;99.90
3564;DHT22;1796;52.388;13.096;2023-03-11T15:08:16;2.30;99.90
3564;DHT22;1796;52.388;13.096;2023-03-11T15:11:19;2.10;99.90
3564;DHT22;1796;52.388;13.096;2023-03-11T15:14:12;2.20;99.90
3564;DHT22;1796;52.388;13.096;2023-03-11T15:16:52;2.20;99.90
3564;DHT22;1796;52.388;13.096;2023-03-11T15:19:35;2.10;99.90
3564;DHT22;1796;52.388;13.096;2023-03-11T15:22:27;2.10;99.90
3564;DHT22;1796;52.388;13.096;2023-03-11T15:25:03;2.50;99.90
3564;DHT22;1796;52.388;13.096;2023-03-11T15:27:43;2.10;99.90
3564;DHT22;1796;52.388;13.096;2023-03-11T15:30:20;2.10;99.90
3564;DHT22;1796;52.388;13.096;2023-03-11T15:32:53;2.00;99.90
3564;DHT22;1796;52.388;13.096;2023-03-11T15:35:22;1.90;99.90
3564;DHT22;1796;52.388;13.096;2023-03-11T15:37:51;2.00;99.90
3564;DHT22;1796;52.388;13.096;2023-03-11T15:40:37;1.90;99.90
3564;DHT22;1796;52.388;13.096;2023-03-11T15:43:24;1.80;99.90
3564;DHT22;1796;52.388;13.096;2023-03-11T15:45:56;1.80;99.90
3564;DHT22;1796;52.388;13.096;2023-03-11T15:48:25;2.00;99.90
3564;DHT22;1796;52.388;13.096;2023-03-11T15:50:56;1.80;99.90
3564;DHT22;1796;52.388;13.096;2023-03-11T15:53:24;1.70;99.90
3564;DHT22;1796;52.388;13.096;2023-03-11T15:55:56;1.70;99.90
3564;DHT22;1796;52.388;13.096;2023-03-11T15:58:29;1.70;99.90
3564;DHT22;1796;52.388;13.096;2023-03-11T16:00:57;1.60;99.90
3564;DHT22;1796;52.388;13.096;2023-03-11T16:03:24;1.70;99.90
3564;DHT22;1796;52.388;13.096;2023-03-11T16:05:51;1.80;99.90
3564;DHT22;1796;52.388;13.096;2023-03-11T16:08:18;1.90;99.90
3564;DHT22;1796;52.388;13.096;2023-03-11T16:10:45;1.80;99.90
3564;DHT22;1796;52.388;13.096;2023-03-11T16:13:13;1.90;99.90
3564;DHT22;1796;52.388;13.096;2023-03-11T16:15:42;1.70;99.90
3564;DHT22;1796;52.388;13.096;2023-03-11T16:18:11;1.80;99.90
3564;DHT22;1796;52.388;13.096;2023-03-11T16:20:41;1.70;99.90
3564;DHT22;1796;52.388;13.096;2023-03-11T16:23:12;1.70;99.90
3564;DHT22;1796;52.388;13.096;2023-03-11T16:25:41;1.70;99.90
3564;DHT22;1796;52.388;13.096;2023-03-11T16:28:10;1.70;99.90
3564;DHT22;1796;52.388;13.096;2023-03-11T16:30:43;1.60;99.90